^^
Saratoga-Weather Station Historical Data
Daily Summary for April 13, 2021 Units:  Both    English   Metric
Daily Weekly Monthly Yearly Custom
  High: Low: Average:
Temperature: 78.8 °F /  26 °C 55.4 °F /  13 °C 65.1 °F /  18.4 °C
Dew Point: 61.2 °F /  16.2 °C 53.1 °F /  11.7 °C 57.2 °F /  14 °C
Humidity: 93% 49% 78%
Wind Speed: 4.9mph /  7.9km/h - 0.6mph /  0.9km/h
Wind Gust: 8mph /  12.9km/h - -
Wind- - ESE
Pressure: 30 in /  1017.3 hPa 29.9 in /  1013.9 hPa -
Precipitation: 0 in /  0.0 mm    
Historical Graphs
 
 
Tabular Data for April 13, 2021
Time Temperature Dew Point Pressure Wind Wind Speed Wind Gust Humidity Rainfall Rate (Hourly) solar
00:03 57.6 °F /  14.2 °C 54.3 °F /  12.4 °C 30in /  1017.3hPa Calm     89% 0in /  0.0mm 0 W/m2
00:08 57.4 °F /  14.1 °C 54.1 °F /  12.3 °C 30in /  1017.3hPa Calm     89% 0in /  0.0mm 0 W/m2
00:13 57.4 °F /  14.1 °C 54.1 °F /  12.3 °C 30in /  1017.3hPa Calm   1mph /  1.6km/h 89% 0in /  0.0mm 0 W/m2
00:18 57.4 °F /  14.1 °C 54.1 °F /  12.3 °C 30in /  1017.3hPa Calm     89% 0in /  0.0mm 0 W/m2
00:23 57.2 °F /  14 °C 54.3 °F /  12.4 °C 30in /  1017.3hPa Calm   1mph /  1.6km/h 90% 0in /  0.0mm 0 W/m2
00:28 57 °F /  13.9 °C 54.1 °F /  12.3 °C 30in /  1017.3hPa Calm     90% 0in /  0.0mm 0 W/m2
00:33 56.8 °F /  13.8 °C 54 °F /  12.2 °C 30in /  1017.3hPa Calm     90% 0in /  0.0mm 0 W/m2
00:38 56.8 °F /  13.8 °C 54 °F /  12.2 °C 30in /  1017.3hPa Calm     90% 0in /  0.0mm 0 W/m2
00:43 56.8 °F /  13.8 °C 54 °F /  12.2 °C 30in /  1017.3hPa Calm     90% 0in /  0.0mm 0 W/m2
00:48 56.7 °F /  13.7 °C 54.1 °F /  12.3 °C 30in /  1016.9hPa Calm     91% 0in /  0.0mm 0 W/m2
00:53 56.7 °F /  13.7 °C 54.1 °F /  12.3 °C 30in /  1016.9hPa Calm     91% 0in /  0.0mm 0 W/m2
00:58 56.7 °F /  13.7 °C 54.1 °F /  12.3 °C 30in /  1016.9hPa Calm     91% 0in /  0.0mm 0 W/m2
01:03 56.7 °F /  13.7 °C 54.1 °F /  12.3 °C 30in /  1017.3hPa Calm     91% 0in /  0.0mm 0 W/m2
01:08 56.5 °F /  13.6 °C 54 °F /  12.2 °C 30in /  1017.3hPa Calm     91% 0in /  0.0mm 0 W/m2
01:13 56.5 °F /  13.6 °C 54 °F /  12.2 °C 30in /  1016.9hPa Calm     91% 0in /  0.0mm 0 W/m2
01:18 56.5 °F /  13.6 °C 54 °F /  12.2 °C 30in /  1017.3hPa Calm   1mph /  1.6km/h 91% 0in /  0.0mm 0 W/m2
01:23 56.5 °F /  13.6 °C 54 °F /  12.2 °C 30in /  1016.9hPa Calm     91% 0in /  0.0mm 0 W/m2
01:28 56.3 °F /  13.5 °C 53.8 °F /  12.1 °C 30in /  1016.9hPa Calm     91% 0in /  0.0mm 0 W/m2
01:33 56.3 °F /  13.5 °C 53.8 °F /  12.1 °C 30in /  1016.9hPa Calm     91% 0in /  0.0mm 0 W/m2
01:38 56.1 °F /  13.4 °C 53.6 °F /  12 °C 30in /  1016.9hPa Calm     91% 0in /  0.0mm 0 W/m2
01:43 55.9 °F /  13.3 °C 53.4 °F /  11.9 °C 30in /  1016.9hPa Calm     91% 0in /  0.0mm 0 W/m2
01:48 55.9 °F /  13.3 °C 53.4 °F /  11.9 °C 30in /  1016.9hPa Calm     91% 0in /  0.0mm 0 W/m2
01:53 55.9 °F /  13.3 °C 53.4 °F /  11.9 °C 30in /  1016.9hPa Calm     91% 0in /  0.0mm 0 W/m2
01:58 55.8 °F /  13.2 °C 53.4 °F /  11.9 °C 30in /  1016.9hPa Calm     92% 0in /  0.0mm 0 W/m2
02:03 55.9 °F /  13.3 °C 53.6 °F /  12 °C 30in /  1016.9hPa Calm     92% 0in /  0.0mm 0 W/m2
02:08 55.9 °F /  13.3 °C 53.6 °F /  12 °C 30in /  1016.9hPa Calm     92% 0in /  0.0mm 0 W/m2
02:13 55.9 °F /  13.3 °C 53.6 °F /  12 °C 30in /  1016.9hPa Calm     92% 0in /  0.0mm 0 W/m2
02:18 55.9 °F /  13.3 °C 53.6 °F /  12 °C 30in /  1016.9hPa Calm     92% 0in /  0.0mm 0 W/m2
02:23 56.1 °F /  13.4 °C 53.8 °F /  12.1 °C 30in /  1016.9hPa Calm     92% 0in /  0.0mm 0 W/m2
02:28 56.1 °F /  13.4 °C 53.8 °F /  12.1 °C 30in /  1016.9hPa Calm     92% 0in /  0.0mm 0 W/m2
02:33 56.1 °F /  13.4 °C 53.8 °F /  12.1 °C 30in /  1016.9hPa Calm     92% 0in /  0.0mm 0 W/m2
02:38 56.5 °F /  13.6 °C 54.5 °F /  12.5 °C 30in /  1016.9hPa Calm     93% 0in /  0.0mm 0 W/m2
02:43 56.5 °F /  13.6 °C 54.5 °F /  12.5 °C 30in /  1016.9hPa Calm     93% 0in /  0.0mm 0 W/m2
02:48 56.7 °F /  13.7 °C 54.3 °F /  12.4 °C 30in /  1016.9hPa Calm     92% 0in /  0.0mm 0 W/m2
02:53 56.7 °F /  13.7 °C 54.3 °F /  12.4 °C 30in /  1016.9hPa Calm     92% 0in /  0.0mm 0 W/m2
02:58 56.8 °F /  13.8 °C 54.5 °F /  12.5 °C 30in /  1016.9hPa Calm     92% 0in /  0.0mm 0 W/m2
03:03 56.8 °F /  13.8 °C 54.5 °F /  12.5 °C 30in /  1016.9hPa Calm     92% 0in /  0.0mm 0 W/m2
03:08 57 °F /  13.9 °C 55 °F /  12.8 °C 30in /  1016.9hPa Calm     93% 0in /  0.0mm 0 W/m2
03:13 57.4 °F /  14.1 °C 55.4 °F /  13 °C 30in /  1016.6hPa Calm     93% 0in /  0.0mm 0 W/m2
03:18 57.6 °F /  14.2 °C 55.2 °F /  12.9 °C 30in /  1016.6hPa Calm     92% 0in /  0.0mm 0 W/m2
03:23 57.6 °F /  14.2 °C 55.2 °F /  12.9 °C 30in /  1016.6hPa Calm     92% 0in /  0.0mm 0 W/m2
03:28 57.7 °F /  14.3 °C 55.4 °F /  13 °C 30in /  1016.6hPa Calm     92% 0in /  0.0mm 0 W/m2
03:33 57.7 °F /  14.3 °C 55.4 °F /  13 °C 30in /  1016.6hPa Calm     92% 0in /  0.0mm 0 W/m2
03:38 57.7 °F /  14.3 °C 55.2 °F /  12.9 °C 30in /  1016.6hPa Calm     91% 0in /  0.0mm 0 W/m2
03:43 57.6 °F /  14.2 °C 55 °F /  12.8 °C 30in /  1016.6hPa Calm     91% 0in /  0.0mm 0 W/m2
03:48 57.6 °F /  14.2 °C 55 °F /  12.8 °C 30in /  1016.6hPa Calm     91% 0in /  0.0mm 0 W/m2
03:53 57.4 °F /  14.1 °C 54.9 °F /  12.7 °C 30in /  1016.6hPa Calm     91% 0in /  0.0mm 0 W/m2
03:58 57 °F /  13.9 °C 54.1 °F /  12.3 °C 30in /  1016.6hPa Calm     90% 0in /  0.0mm 0 W/m2
04:03 56.8 °F /  13.8 °C 54 °F /  12.2 °C 30in /  1016.6hPa Calm     90% 0in /  0.0mm 0 W/m2
04:08 56.7 °F /  13.7 °C 53.8 °F /  12.1 °C 30in /  1016.6hPa Calm     90% 0in /  0.0mm 0 W/m2
04:13 56.5 °F /  13.6 °C 53.6 °F /  12 °C 30in /  1016.6hPa Calm     90% 0in /  0.0mm 0 W/m2
04:18 56.3 °F /  13.5 °C 53.4 °F /  11.9 °C 30in /  1016.6hPa Calm     90% 0in /  0.0mm 0 W/m2
04:23 56.1 °F /  13.4 °C 53.6 °F /  12 °C 30in /  1016.3hPa Calm     91% 0in /  0.0mm 0 W/m2
04:28 55.9 °F /  13.3 °C 53.4 °F /  11.9 °C 30in /  1016.3hPa Calm     91% 0in /  0.0mm 0 W/m2
04:33 55.9 °F /  13.3 °C 53.4 °F /  11.9 °C 30in /  1016.3hPa Calm     91% 0in /  0.0mm 0 W/m2
04:38 55.8 °F /  13.2 °C 53.2 °F /  11.8 °C 30in /  1016.6hPa Calm     91% 0in /  0.0mm 0 W/m2
04:43 55.8 °F /  13.2 °C 53.2 °F /  11.8 °C 30in /  1016.6hPa Calm     91% 0in /  0.0mm 0 W/m2
04:48 55.6 °F /  13.1 °C 53.2 °F /  11.8 °C 30in /  1016.6hPa Calm     92% 0in /  0.0mm 0 W/m2
04:54 55.4 °F /  13 °C 53.1 °F /  11.7 °C 30in /  1016.6hPa Calm     92% 0in /  0.0mm 0 W/m2
04:59 55.6 °F /  13.1 °C 53.2 °F /  11.8 °C 30in /  1016.3hPa Calm     92% 0in /  0.0mm 0 W/m2
05:04 55.6 °F /  13.1 °C 53.6 °F /  12 °C 30in /  1016.3hPa Calm     93% 0in /  0.0mm 0 W/m2
05:09 55.6 °F /  13.1 °C 53.6 °F /  12 °C 30in /  1016.3hPa Calm     93% 0in /  0.0mm 0 W/m2
05:14 55.6 °F /  13.1 °C 53.6 °F /  12 °C 30in /  1016.3hPa Calm     93% 0in /  0.0mm 0 W/m2
05:19 55.6 °F /  13.1 °C 53.6 °F /  12 °C 30in /  1016.3hPa Calm     93% 0in /  0.0mm 0 W/m2
05:24 55.8 °F /  13.2 °C 53.8 °F /  12.1 °C 30in /  1016.3hPa Calm   1mph /  1.6km/h 93% 0in /  0.0mm 0 W/m2
05:29 55.9 °F /  13.3 °C 54 °F /  12.2 °C 30in /  1016.6hPa Calm     93% 0in /  0.0mm 0 W/m2
05:34 55.9 °F /  13.3 °C 54 °F /  12.2 °C 30in /  1016.6hPa Calm   1mph /  1.6km/h 93% 0in /  0.0mm 0 W/m2
05:39 56.1 °F /  13.4 °C 54.1 °F /  12.3 °C 30in /  1016.6hPa Calm     93% 0in /  0.0mm 0 W/m2
05:44 56.3 °F /  13.5 °C 54.3 °F /  12.4 °C 30in /  1016.6hPa Calm     93% 0in /  0.0mm 0 W/m2
05:49 56.5 °F /  13.6 °C 54.5 °F /  12.5 °C 30in /  1016.6hPa Calm     93% 0in /  0.0mm 0 W/m2
05:54 56.7 °F /  13.7 °C 54.7 °F /  12.6 °C 30in /  1016.6hPa Calm     93% 0in /  0.0mm 0 W/m2
05:59 56.7 °F /  13.7 °C 54.7 °F /  12.6 °C 30in /  1016.6hPa Calm     93% 0in /  0.0mm 0 W/m2
06:04 56.8 °F /  13.8 °C 54.9 °F /  12.7 °C 30in /  1016.3hPa Calm   2mph /  3.2km/h 93% 0in /  0.0mm 0 W/m2
06:09 57 °F /  13.9 °C 55 °F /  12.8 °C 30in /  1016.6hPa Calm     93% 0in /  0.0mm 0 W/m2
06:14 57 °F /  13.9 °C 55 °F /  12.8 °C 30in /  1016.6hPa Calm   1mph /  1.6km/h 93% 0in /  0.0mm 0 W/m2
06:19 57.2 °F /  14 °C 54.9 °F /  12.7 °C 30in /  1016.6hPa Calm     92% 0in /  0.0mm 0 W/m2
06:24 57.2 °F /  14 °C 54.9 °F /  12.7 °C 30in /  1016.6hPa Calm     92% 0in /  0.0mm 0 W/m2
06:29 57.4 °F /  14.1 °C 55 °F /  12.8 °C 30in /  1016.6hPa Calm     92% 0in /  0.0mm 0 W/m2
06:34 57.4 °F /  14.1 °C 55 °F /  12.8 °C 30in /  1016.6hPa Calm     92% 0in /  0.0mm 0 W/m2
06:39 57.4 °F /  14.1 °C 55 °F /  12.8 °C 30in /  1016.6hPa Calm     92% 0in /  0.0mm 0 W/m2
06:44 57.4 °F /  14.1 °C 55 °F /  12.8 °C 30in /  1016.3hPa Calm     92% 0in /  0.0mm 0 W/m2
06:49 57.4 °F /  14.1 °C 54.9 °F /  12.7 °C 30in /  1016.6hPa Calm     91% 0in /  0.0mm 0 W/m2
06:54 57.4 °F /  14.1 °C 54.9 °F /  12.7 °C 30in /  1016.6hPa Calm     91% 0in /  0.0mm 0 W/m2
06:59 57.4 °F /  14.1 °C 54.9 °F /  12.7 °C 30in /  1016.6hPa Calm     91% 0in /  0.0mm 0 W/m2
07:04 57.4 °F /  14.1 °C 54.9 °F /  12.7 °C 30in /  1016.6hPa Calm     91% 0in /  0.0mm 0 W/m2
07:09 57.4 °F /  14.1 °C 54.9 °F /  12.7 °C 30in /  1016.6hPa Calm     91% 0in /  0.0mm 0 W/m2
07:14 57.4 °F /  14.1 °C 54.9 °F /  12.7 °C 30in /  1016.6hPa Calm     91% 0in /  0.0mm 0 W/m2
07:19 57.4 °F /  14.1 °C 54.9 °F /  12.7 °C 30in /  1016.6hPa Calm     91% 0in /  0.0mm 5 W/m2
07:24 57.4 °F /  14.1 °C 54.9 °F /  12.7 °C 30in /  1016.6hPa Calm     91% 0in /  0.0mm 5 W/m2
07:29 57.6 °F /  14.2 °C 55 °F /  12.8 °C 30in /  1016.6hPa Calm     91% 0in /  0.0mm 5 W/m2
07:34 57.4 °F /  14.1 °C 54.9 °F /  12.7 °C 30in /  1016.6hPa Calm     91% 0in /  0.0mm 9 W/m2
07:39 57.4 °F /  14.1 °C 54.9 °F /  12.7 °C 30in /  1016.6hPa Calm     91% 0in /  0.0mm 18 W/m2
07:44 57.6 °F /  14.2 °C 54.7 °F /  12.6 °C 30in /  1016.6hPa Calm     90% 0in /  0.0mm 21 W/m2
07:49 57.6 °F /  14.2 °C 54.7 °F /  12.6 °C 30in /  1016.6hPa Calm     90% 0in /  0.0mm 28 W/m2
07:54 57.6 °F /  14.2 °C 54.7 °F /  12.6 °C 30in /  1016.6hPa Calm   1mph /  1.6km/h 90% 0in /  0.0mm 33 W/m2
07:59 57.6 °F /  14.2 °C 54.7 °F /  12.6 °C 30in /  1016.6hPa Calm   1mph /  1.6km/h 90% 0in /  0.0mm 42 W/m2
08:04 57.7 °F /  14.3 °C 54.9 °F /  12.7 °C 30in /  1016.6hPa SSE 0.9mph /  1.4km/h 1mph /  1.6km/h 90% 0in /  0.0mm 46 W/m2
08:09 57.7 °F /  14.3 °C 54.9 °F /  12.7 °C 30in /  1016.6hPa Calm     90% 0in /  0.0mm 51 W/m2
08:14 57.9 °F /  14.4 °C 55 °F /  12.8 °C 30in /  1016.6hPa Calm     90% 0in /  0.0mm 56 W/m2
08:19 58.1 °F /  14.5 °C 54.9 °F /  12.7 °C 30in /  1016.6hPa Calm     89% 0in /  0.0mm 60 W/m2
08:24 58.3 °F /  14.6 °C 55 °F /  12.8 °C 30in /  1016.9hPa Calm     89% 0in /  0.0mm 72 W/m2
08:29 58.3 °F /  14.6 °C 55 °F /  12.8 °C 30in /  1016.9hPa Calm     89% 0in /  0.0mm 76 W/m2
08:34 58.5 °F /  14.7 °C 55.2 °F /  12.9 °C 30in /  1016.9hPa Calm     89% 0in /  0.0mm 86 W/m2
08:39 58.6 °F /  14.8 °C 55 °F /  12.8 °C 30in /  1016.9hPa Calm     88% 0in /  0.0mm 90 W/m2
08:44 58.8 °F /  14.9 °C 55.2 °F /  12.9 °C 30in /  1016.9hPa Calm     88% 0in /  0.0mm 93 W/m2
08:49 58.8 °F /  14.9 °C 55.2 °F /  12.9 °C 30in /  1016.9hPa Calm     88% 0in /  0.0mm 95 W/m2
08:54 59.2 °F /  15.1 °C 55.6 °F /  13.1 °C 30in /  1016.9hPa Calm     88% 0in /  0.0mm 105 W/m2
08:59 59.4 °F /  15.2 °C 55.4 °F /  13 °C 30in /  1016.9hPa Calm     87% 0in /  0.0mm 116 W/m2
09:04 59.5 °F /  15.3 °C 55.6 °F /  13.1 °C 30in /  1016.9hPa Calm     87% 0in /  0.0mm 121 W/m2
09:09 59.5 °F /  15.3 °C 55.4 °F /  13 °C 30in /  1016.9hPa Calm     86% 0in /  0.0mm 128 W/m2
09:14 59.9 °F /  15.5 °C 55.9 °F /  13.3 °C 30in /  1016.9hPa Calm     87% 0in /  0.0mm 141 W/m2
09:19 60.1 °F /  15.6 °C 55.9 °F /  13.3 °C 30in /  1016.9hPa Calm   1mph /  1.6km/h 86% 0in /  0.0mm 86 W/m2
09:24 60.3 °F /  15.7 °C 56.1 °F /  13.4 °C 30in /  1016.9hPa Calm     86% 0in /  0.0mm 192 W/m2
09:29 60.6 °F /  15.9 °C 56.5 °F /  13.6 °C 30in /  1016.9hPa Calm   2mph /  3.2km/h 86% 0in /  0.0mm 304 W/m2
09:34 61 °F /  16.1 °C 56.1 °F /  13.4 °C 30in /  1016.9hPa NNW 0.9mph /  1.4km/h 2mph /  3.2km/h 84% 0in /  0.0mm 315 W/m2
09:39 61.3 °F /  16.3 °C 56.1 °F /  13.4 °C 30in /  1016.9hPa NNW 2mph /  3.2km/h 3mph /  4.8km/h 83% 0in /  0.0mm 308 W/m2
09:44 61.7 °F /  16.5 °C 56.5 °F /  13.6 °C 30in /  1016.9hPa Calm   3mph /  4.8km/h 83% 0in /  0.0mm 332 W/m2
09:49 62.2 °F /  16.8 °C 57 °F /  13.9 °C 30in /  1016.9hPa Calm   1mph /  1.6km/h 83% 0in /  0.0mm 355 W/m2
09:54 62.4 °F /  16.9 °C 56.8 °F /  13.8 °C 30in /  1016.9hPa ENE 2mph /  3.2km/h 3mph /  4.8km/h 82% 0in /  0.0mm 362 W/m2
09:59 63.1 °F /  17.3 °C 56.8 °F /  13.8 °C 30in /  1016.9hPa ESE 0.9mph /  1.4km/h 3mph /  4.8km/h 80% 0in /  0.0mm 362 W/m2
10:04 63.5 °F /  17.5 °C 56.8 °F /  13.8 °C 30in /  1016.9hPa NNW 0.9mph /  1.4km/h 2mph /  3.2km/h 79% 0in /  0.0mm 388 W/m2
10:09 64 °F /  17.8 °C 57.4 °F /  14.1 °C 30in /  1016.9hPa NE 4.9mph /  7.9km/h 5mph /  8km/h 79% 0in /  0.0mm 388 W/m2
10:14 64.2 °F /  17.9 °C 57.2 °F /  14 °C 30in /  1016.9hPa NE 0.9mph /  1.4km/h 4mph /  6.4km/h 78% 0in /  0.0mm 376 W/m2
10:19 64.4 °F /  18 °C 57 °F /  13.9 °C 30in /  1017.3hPa East 2mph /  3.2km/h 5mph /  8km/h 77% 0in /  0.0mm 408 W/m2
10:24 64.8 °F /  18.2 °C 57.7 °F /  14.3 °C 30in /  1017.3hPa ENE 2mph /  3.2km/h 3mph /  4.8km/h 78% 0in /  0.0mm 441 W/m2
10:29 65.1 °F /  18.4 °C 57.4 °F /  14.1 °C 30in /  1017.3hPa East 0.9mph /  1.4km/h 3mph /  4.8km/h 76% 0in /  0.0mm 427 W/m2
10:34 65.3 °F /  18.5 °C 57.2 °F /  14 °C 30in /  1017.3hPa Calm   2mph /  3.2km/h 75% 0in /  0.0mm 441 W/m2
10:39 65.5 °F /  18.6 °C 57.4 °F /  14.1 °C 30in /  1017.3hPa Calm   2mph /  3.2km/h 75% 0in /  0.0mm 420 W/m2
10:45 65.7 °F /  18.7 °C 57.6 °F /  14.2 °C 30in /  1016.9hPa Calm   3mph /  4.8km/h 75% 0in /  0.0mm 425 W/m2
10:55 66.2 °F /  19 °C 58.1 °F /  14.5 °C 30in /  1017.3hPa Calm   2mph /  3.2km/h 75% 0in /  0.0mm 540 W/m2
11:00 66.6 °F /  19.2 °C 58.1 °F /  14.5 °C 30in /  1016.9hPa East 2mph /  3.2km/h 4mph /  6.4km/h 74% 0in /  0.0mm 496 W/m2
11:05 66.9 °F /  19.4 °C 58.3 °F /  14.6 °C 30in /  1016.9hPa Calm   3mph /  4.8km/h 74% 0in /  0.0mm 508 W/m2
11:10 67.5 °F /  19.7 °C 58.5 °F /  14.7 °C 30in /  1017.3hPa East 2mph /  3.2km/h 3mph /  4.8km/h 73% 0in /  0.0mm 529 W/m2
11:15 67.6 °F /  19.8 °C 58.3 °F /  14.6 °C 30in /  1017.3hPa NNE 0.9mph /  1.4km/h 4mph /  6.4km/h 72% 0in /  0.0mm 536 W/m2
11:20 67.6 °F /  19.8 °C 58.6 °F /  14.8 °C 30in /  1016.9hPa ENE 2mph /  3.2km/h 3mph /  4.8km/h 73% 0in /  0.0mm 541 W/m2
11:25 67.6 °F /  19.8 °C 58.3 °F /  14.6 °C 30in /  1016.9hPa North 0.9mph /  1.4km/h 2mph /  3.2km/h 72% 0in /  0.0mm 543 W/m2
11:30 68 °F /  20 °C 58.3 °F /  14.6 °C 30in /  1016.9hPa SE 2mph /  3.2km/h 3mph /  4.8km/h 71% 0in /  0.0mm 536 W/m2
11:35 68.4 °F /  20.2 °C 59.4 °F /  15.2 °C 30in /  1016.9hPa SE 2mph /  3.2km/h 2mph /  3.2km/h 73% 0in /  0.0mm 606 W/m2
11:40 68.7 °F /  20.4 °C 59.4 °F /  15.2 °C 30in /  1016.9hPa Calm   4mph /  6.4km/h 72% 0in /  0.0mm 568 W/m2
11:45 69.1 °F /  20.6 °C 59.4 °F /  15.2 °C 30in /  1016.9hPa ENE 4mph /  6.4km/h 4mph /  6.4km/h 71% 0in /  0.0mm 570 W/m2
11:50 69.4 °F /  20.8 °C 59.5 °F /  15.3 °C 30in /  1016.9hPa ESE 0.9mph /  1.4km/h 6mph /  9.7km/h 71% 0in /  0.0mm 603 W/m2
12:00 70.2 °F /  21.2 °C 59.9 °F /  15.5 °C 30in /  1016.9hPa Calm   4mph /  6.4km/h 70% 0in /  0.0mm 515 W/m2
12:05 70.5 °F /  21.4 °C 59.4 °F /  15.2 °C 30in /  1016.9hPa ESE 0.9mph /  1.4km/h 2mph /  3.2km/h 68% 0in /  0.0mm 638 W/m2
12:10 71.2 °F /  21.8 °C 60.1 °F /  15.6 °C 30in /  1016.9hPa Calm   2mph /  3.2km/h 68% 0in /  0.0mm 580 W/m2
12:15 71.8 °F /  22.1 °C 59.7 °F /  15.4 °C 30in /  1016.6hPa ENE 4mph /  6.4km/h 4mph /  6.4km/h 66% 0in /  0.0mm 628 W/m2
12:20 72 °F /  22.2 °C 59.9 °F /  15.5 °C 30in /  1016.6hPa Calm   2mph /  3.2km/h 66% 0in /  0.0mm 563 W/m2
12:25 72.7 °F /  22.6 °C 60.6 °F /  15.9 °C 30in /  1016.6hPa East 0.9mph /  1.4km/h 3mph /  4.8km/h 66% 0in /  0.0mm 628 W/m2
12:30 72.9 °F /  22.7 °C 59.9 °F /  15.5 °C 30in /  1016.6hPa NE 2mph /  3.2km/h 4mph /  6.4km/h 64% 0in /  0.0mm 543 W/m2
12:35 72.9 °F /  22.7 °C 59.9 °F /  15.5 °C 30in /  1016.3hPa ENE 0.9mph /  1.4km/h 2mph /  3.2km/h 64% 0in /  0.0mm 582 W/m2
12:40 72.9 °F /  22.7 °C 59.5 °F /  15.3 °C 30in /  1016.3hPa East 2mph /  3.2km/h 3mph /  4.8km/h 63% 0in /  0.0mm 578 W/m2
12:45 73 °F /  22.8 °C 60.1 °F /  15.6 °C 30in /  1016.3hPa SE 2mph /  3.2km/h 4mph /  6.4km/h 64% 0in /  0.0mm 531 W/m2
12:50 73.2 °F /  22.9 °C 59.9 °F /  15.5 °C 30in /  1016.3hPa SSE 2mph /  3.2km/h 5mph /  8km/h 63% 0in /  0.0mm 587 W/m2
12:55 73.4 °F /  23 °C 60.1 °F /  15.6 °C 30in /  1016.3hPa East 0.9mph /  1.4km/h 2mph /  3.2km/h 63% 0in /  0.0mm 570 W/m2
13:00 73.6 °F /  23.1 °C 59.7 °F /  15.4 °C 30in /  1016.3hPa ENE 2.9mph /  4.7km/h 4mph /  6.4km/h 62% 0in /  0.0mm 603 W/m2
13:05 73.8 °F /  23.2 °C 59.9 °F /  15.5 °C 30in /  1016.3hPa NE 0.9mph /  1.4km/h 4mph /  6.4km/h 62% 0in /  0.0mm 621 W/m2
13:10 73.9 °F /  23.3 °C 59.7 °F /  15.4 °C 30in /  1015.9hPa ENE 0.9mph /  1.4km/h 3mph /  4.8km/h 61% 0in /  0.0mm 654 W/m2
13:15 74.1 °F /  23.4 °C 58.8 °F /  14.9 °C 30in /  1015.9hPa East 4mph /  6.4km/h 6mph /  9.7km/h 59% 0in /  0.0mm 668 W/m2
13:20 73.9 °F /  23.3 °C 59.2 °F /  15.1 °C 30in /  1015.9hPa Calm   7mph /  11.3km/h 60% 0in /  0.0mm 664 W/m2
13:25 74.1 °F /  23.4 °C 59.7 °F /  15.4 °C 30in /  1015.9hPa ESE 2mph /  3.2km/h 3mph /  4.8km/h 61% 0in /  0.0mm 584 W/m2
13:30 74.5 °F /  23.6 °C 59.2 °F /  15.1 °C 30in /  1015.6hPa Calm   4mph /  6.4km/h 59% 0in /  0.0mm 635 W/m2
13:35 74.7 °F /  23.7 °C 59.4 °F /  15.2 °C 30in /  1015.9hPa ENE 0.9mph /  1.4km/h 2mph /  3.2km/h 59% 0in /  0.0mm 599 W/m2
13:40 74.8 °F /  23.8 °C 60.1 °F /  15.6 °C 30in /  1015.6hPa ENE 2mph /  3.2km/h 4mph /  6.4km/h 60% 0in /  0.0mm 589 W/m2
13:45 74.8 °F /  23.8 °C 58.6 °F /  14.8 °C 30in /  1015.9hPa Calm   5mph /  8km/h 57% 0in /  0.0mm 526 W/m2
13:50 74.8 °F /  23.8 °C 59 °F /  15 °C 30in /  1015.9hPa SSE 0.9mph /  1.4km/h 3mph /  4.8km/h 58% 0in /  0.0mm 512 W/m2
13:55 75 °F /  23.9 °C 61.2 °F /  16.2 °C 30in /  1015.9hPa NNW 2mph /  3.2km/h 2mph /  3.2km/h 62% 0in /  0.0mm 519 W/m2
14:00 75 °F /  23.9 °C 60.6 °F /  15.9 °C 30in /  1015.9hPa East 0.9mph /  1.4km/h 1mph /  1.6km/h 61% 0in /  0.0mm 478 W/m2
14:05 74.8 °F /  23.8 °C 59.5 °F /  15.3 °C 30in /  1015.6hPa SW 2mph /  3.2km/h 3mph /  4.8km/h 59% 0in /  0.0mm 494 W/m2
14:10 74.8 °F /  23.8 °C 59.5 °F /  15.3 °C 30in /  1015.6hPa SE 2mph /  3.2km/h 5mph /  8km/h 59% 0in /  0.0mm 471 W/m2
14:15 75 °F /  23.9 °C 59.2 °F /  15.1 °C 30in /  1015.6hPa ESE 2.9mph /  4.7km/h 6mph /  9.7km/h 58% 0in /  0.0mm 621 W/m2
14:20 74.8 °F /  23.8 °C 59.5 °F /  15.3 °C 30in /  1015.6hPa SSE 0.9mph /  1.4km/h 3mph /  4.8km/h 59% 0in /  0.0mm 636 W/m2
14:25 75.2 °F /  24 °C 60.4 °F /  15.8 °C 30in /  1015.6hPa NE 0.9mph /  1.4km/h 1mph /  1.6km/h 60% 0in /  0.0mm 650 W/m2
14:30 75.6 °F /  24.2 °C 59.2 °F /  15.1 °C 30in /  1015.6hPa East 0.9mph /  1.4km/h 6mph /  9.7km/h 57% 0in /  0.0mm 694 W/m2
14:35 75.7 °F /  24.3 °C 59.4 °F /  15.2 °C 30in /  1015.6hPa SE 2mph /  3.2km/h 3mph /  4.8km/h 57% 0in /  0.0mm 629 W/m2
14:40 75.6 °F /  24.2 °C 58.8 °F /  14.9 °C 30in /  1015.2hPa SE 0.9mph /  1.4km/h 6mph /  9.7km/h 56% 0in /  0.0mm 626 W/m2
14:45 75.7 °F /  24.3 °C 59 °F /  15 °C 30in /  1015.2hPa SE 2mph /  3.2km/h 8mph /  12.9km/h 56% 0in /  0.0mm 694 W/m2
14:50 75.7 °F /  24.3 °C 59 °F /  15 °C 30in /  1015.2hPa ENE 2.9mph /  4.7km/h 7mph /  11.3km/h 56% 0in /  0.0mm 654 W/m2
14:55 75.9 °F /  24.4 °C 59.2 °F /  15.1 °C 30in /  1015.2hPa NE 2mph /  3.2km/h 8mph /  12.9km/h 56% 0in /  0.0mm 635 W/m2
15:01 76.5 °F /  24.7 °C 59.2 °F /  15.1 °C 30in /  1015.2hPa SSE 4.9mph /  7.9km/h 5mph /  8km/h 55% 0in /  0.0mm 638 W/m2
15:06 76.6 °F /  24.8 °C 59.2 °F /  15.1 °C 30in /  1015.2hPa East 2.9mph /  4.7km/h 4mph /  6.4km/h 55% 0in /  0.0mm 626 W/m2
15:11 76.8 °F /  24.9 °C 60.4 °F /  15.8 °C 30in /  1015.2hPa East 2mph /  3.2km/h 2mph /  3.2km/h 57% 0in /  0.0mm 251 W/m2
15:16 76.6 °F /  24.8 °C 59.2 °F /  15.1 °C 30in /  1015.2hPa Calm   2mph /  3.2km/h 55% 0in /  0.0mm 568 W/m2
15:21 76.8 °F /  24.9 °C 59.9 °F /  15.5 °C 30in /  1014.9hPa East 2mph /  3.2km/h 4mph /  6.4km/h 56% 0in /  0.0mm 541 W/m2
15:26 76.6 °F /  24.8 °C 59.2 °F /  15.1 °C 30in /  1014.9hPa West 2mph /  3.2km/h 3mph /  4.8km/h 55% 0in /  0.0mm 527 W/m2
15:31 76.8 °F /  24.9 °C 60.4 °F /  15.8 °C 30in /  1015.2hPa NE 2.9mph /  4.7km/h 3mph /  4.8km/h 57% 0in /  0.0mm 601 W/m2
15:36 76.6 °F /  24.8 °C 60.3 °F /  15.7 °C 30in /  1014.9hPa Calm   3mph /  4.8km/h 57% 0in /  0.0mm 601 W/m2
15:41 76.5 °F /  24.7 °C 60.1 °F /  15.6 °C 30in /  1014.9hPa SE 0.9mph /  1.4km/h 1mph /  1.6km/h 57% 0in /  0.0mm 585 W/m2
15:46 76.5 °F /  24.7 °C 59.5 °F /  15.3 °C 30in /  1014.9hPa ENE 2mph /  3.2km/h 3mph /  4.8km/h 56% 0in /  0.0mm 621 W/m2
15:51 76.8 °F /  24.9 °C 59.4 °F /  15.2 °C 30in /  1014.9hPa NNE 2mph /  3.2km/h 2mph /  3.2km/h 55% 0in /  0.0mm 603 W/m2
15:56 77.2 °F /  25.1 °C 58.6 °F /  14.8 °C 30in /  1014.9hPa NNE 2mph /  3.2km/h 4mph /  6.4km/h 53% 0in /  0.0mm 571 W/m2
16:01 77.2 °F /  25.1 °C 58.3 °F /  14.6 °C 30in /  1014.9hPa ENE 2mph /  3.2km/h 3mph /  4.8km/h 52% 0in /  0.0mm 517 W/m2
16:06 77.4 °F /  25.2 °C 58.3 °F /  14.6 °C 30in /  1014.9hPa East 0.9mph /  1.4km/h 2mph /  3.2km/h 52% 0in /  0.0mm 629 W/m2
16:11 77.7 °F /  25.4 °C 58.6 °F /  14.8 °C 30in /  1014.9hPa East 0.9mph /  1.4km/h 2mph /  3.2km/h 52% 0in /  0.0mm 533 W/m2
16:16 78.1 °F /  25.6 °C 60.1 °F /  15.6 °C 30in /  1014.9hPa NW 0.9mph /  1.4km/h 3mph /  4.8km/h 54% 0in /  0.0mm 503 W/m2
16:21 78.3 °F /  25.7 °C 59.7 °F /  15.4 °C 30in /  1014.9hPa NNW 2mph /  3.2km/h 6mph /  9.7km/h 53% 0in /  0.0mm 599 W/m2
16:26 78.3 °F /  25.7 °C 59.7 °F /  15.4 °C 30in /  1014.9hPa East 2mph /  3.2km/h 4mph /  6.4km/h 53% 0in /  0.0mm 480 W/m2
16:31 78.3 °F /  25.7 °C 59.7 °F /  15.4 °C 30in /  1014.9hPa East 2.9mph /  4.7km/h 4mph /  6.4km/h 53% 0in /  0.0mm 504 W/m2
16:36 78.1 °F /  25.6 °C 60.1 °F /  15.6 °C 30in /  1014.6hPa ESE 2mph /  3.2km/h 4mph /  6.4km/h 54% 0in /  0.0mm 538 W/m2
16:41 77.9 °F /  25.5 °C 59.4 °F /  15.2 °C 30in /  1014.6hPa SE 0.9mph /  1.4km/h 1mph /  1.6km/h 53% 0in /  0.0mm 487 W/m2
16:46 78.3 °F /  25.7 °C 59.7 °F /  15.4 °C 30in /  1014.6hPa Calm   1mph /  1.6km/h 53% 0in /  0.0mm 512 W/m2
16:51 78.6 °F /  25.9 °C 57.9 °F /  14.4 °C 30in /  1014.6hPa ESE 0.9mph /  1.4km/h 3mph /  4.8km/h 49% 0in /  0.0mm 503 W/m2
16:56 78.6 °F /  25.9 °C 60.1 °F /  15.6 °C 30in /  1014.6hPa Calm   1mph /  1.6km/h 53% 0in /  0.0mm 482 W/m2
17:01 78.4 °F /  25.8 °C 59.9 °F /  15.5 °C 30in /  1014.6hPa Calm   2mph /  3.2km/h 53% 0in /  0.0mm 462 W/m2
17:06 78.4 °F /  25.8 °C 60.4 °F /  15.8 °C 30in /  1014.6hPa Calm     54% 0in /  0.0mm 424 W/m2
17:11 78.6 °F /  25.9 °C 60.1 °F /  15.6 °C 30in /  1014.6hPa East 0.9mph /  1.4km/h 1mph /  1.6km/h 53% 0in /  0.0mm 422 W/m2
17:16 78.8 °F /  26 °C 59.2 °F /  15.1 °C 30in /  1014.6hPa East 2mph /  3.2km/h 4mph /  6.4km/h 51% 0in /  0.0mm 381 W/m2
17:21 78.6 °F /  25.9 °C 59.5 °F /  15.3 °C 30in /  1014.6hPa ENE 0.9mph /  1.4km/h 1mph /  1.6km/h 52% 0in /  0.0mm 424 W/m2
17:26 78.4 °F /  25.8 °C 59.4 °F /  15.2 °C 30in /  1014.6hPa ESE 0.9mph /  1.4km/h 4mph /  6.4km/h 52% 0in /  0.0mm 410 W/m2
17:31 78.6 °F /  25.9 °C 60.1 °F /  15.6 °C 30in /  1014.6hPa SE 0.9mph /  1.4km/h 4mph /  6.4km/h 53% 0in /  0.0mm 420 W/m2
17:36 78.4 °F /  25.8 °C 58.3 °F /  14.6 °C 30in /  1014.6hPa ENE 2.9mph /  4.7km/h 4mph /  6.4km/h 50% 0in /  0.0mm 411 W/m2
17:41 78.4 °F /  25.8 °C 59.4 °F /  15.2 °C 30in /  1014.2hPa Calm   1mph /  1.6km/h 52% 0in /  0.0mm 380 W/m2
17:46 78.4 °F /  25.8 °C 60.4 °F /  15.8 °C 30in /  1014.6hPa Calm     54% 0in /  0.0mm 373 W/m2
17:51 78.4 °F /  25.8 °C 58.8 °F /  14.9 °C 30in /  1014.2hPa ESE 2mph /  3.2km/h 2mph /  3.2km/h 51% 0in /  0.0mm 369 W/m2
17:56 78.6 °F /  25.9 °C 59.5 °F /  15.3 °C 30in /  1014.2hPa Calm   2mph /  3.2km/h 52% 0in /  0.0mm 301 W/m2
18:01 78.6 °F /  25.9 °C 60.6 °F /  15.9 °C 30in /  1014.2hPa Calm     54% 0in /  0.0mm 272 W/m2
18:06 78.6 °F /  25.9 °C 59.5 °F /  15.3 °C 30in /  1014.2hPa Calm   1mph /  1.6km/h 52% 0in /  0.0mm 241 W/m2
18:11 78.1 °F /  25.6 °C 59 °F /  15 °C 30in /  1014.2hPa NE 2mph /  3.2km/h 6mph /  9.7km/h 52% 0in /  0.0mm 188 W/m2
18:16 77.4 °F /  25.2 °C 58.8 °F /  14.9 °C 30in /  1014.2hPa SE 2mph /  3.2km/h 5mph /  8km/h 53% 0in /  0.0mm 169 W/m2
18:21 76.6 °F /  24.8 °C 58.8 °F /  14.9 °C 30in /  1014.2hPa East 2mph /  3.2km/h 3mph /  4.8km/h 54% 0in /  0.0mm 134 W/m2
18:26 76.3 °F /  24.6 °C 58.5 °F /  14.7 °C 30in /  1014.2hPa ESE 0.9mph /  1.4km/h 4mph /  6.4km/h 54% 0in /  0.0mm 139 W/m2
18:31 75.9 °F /  24.4 °C 59.2 °F /  15.1 °C 30in /  1014.2hPa ESE 0.9mph /  1.4km/h 2mph /  3.2km/h 56% 0in /  0.0mm 127 W/m2
18:36 75.6 °F /  24.2 °C 58.8 °F /  14.9 °C 29.9in /  1013.9hPa East 0.9mph /  1.4km/h 3mph /  4.8km/h 56% 0in /  0.0mm 114 W/m2
18:41 75.2 °F /  24 °C 58.5 °F /  14.7 °C 29.9in /  1013.9hPa NE 2.9mph /  4.7km/h 3mph /  4.8km/h 56% 0in /  0.0mm 100 W/m2
18:46 74.8 °F /  23.8 °C 59.5 °F /  15.3 °C 29.9in /  1013.9hPa Calm   1mph /  1.6km/h 59% 0in /  0.0mm 79 W/m2
18:51 74.7 °F /  23.7 °C 60.8 °F /  16 °C 30in /  1014.2hPa Calm     62% 0in /  0.0mm 79 W/m2
18:56 73.9 °F /  23.3 °C 61 °F /  16.1 °C 29.9in /  1013.9hPa SE 0.9mph /  1.4km/h 2mph /  3.2km/h 64% 0in /  0.0mm 56 W/m2
19:01 73.2 °F /  22.9 °C 60.3 °F /  15.7 °C 30in /  1014.2hPa SE 0.9mph /  1.4km/h 2mph /  3.2km/h 64% 0in /  0.0mm 46 W/m2
19:06 72.7 °F /  22.6 °C 60.3 °F /  15.7 °C 30in /  1014.2hPa Calm   2mph /  3.2km/h 65% 0in /  0.0mm 39 W/m2
19:11 72.1 °F /  22.3 °C 60.6 °F /  15.9 °C 29.9in /  1013.9hPa Calm   2mph /  3.2km/h 67% 0in /  0.0mm 33 W/m2
19:16 71.6 °F /  22 °C 60.1 °F /  15.6 °C 30in /  1014.2hPa Calm   2mph /  3.2km/h 67% 0in /  0.0mm 30 W/m2
19:21 71.1 °F /  21.7 °C 59.9 °F /  15.5 °C 30in /  1014.2hPa SE 0.9mph /  1.4km/h 2mph /  3.2km/h 68% 0in /  0.0mm 26 W/m2
19:26 70.5 °F /  21.4 °C 59.9 °F /  15.5 °C 30in /  1014.2hPa SE 0.9mph /  1.4km/h 2mph /  3.2km/h 69% 0in /  0.0mm 23 W/m2
19:31 70.2 °F /  21.2 °C 59.9 °F /  15.5 °C 29.9in /  1013.9hPa Calm   1mph /  1.6km/h 70% 0in /  0.0mm 19 W/m2
19:36 69.6 °F /  20.9 °C 59.7 °F /  15.4 °C 29.9in /  1013.9hPa SE 0.9mph /  1.4km/h 2mph /  3.2km/h 71% 0in /  0.0mm 14 W/m2
19:41 69.3 °F /  20.7 °C 59.5 °F /  15.3 °C 29.9in /  1013.9hPa SE 0.9mph /  1.4km/h 2mph /  3.2km/h 71% 0in /  0.0mm 9 W/m2
19:46 68.7 °F /  20.4 °C 59.4 °F /  15.2 °C 30in /  1014.2hPa Calm     72% 0in /  0.0mm 7 W/m2
19:51 68.2 °F /  20.1 °C 59.2 °F /  15.1 °C 30in /  1014.2hPa SE 0.9mph /  1.4km/h 2mph /  3.2km/h 73% 0in /  0.0mm 5 W/m2
19:56 67.6 °F /  19.8 °C 59.4 °F /  15.2 °C 29.9in /  1013.9hPa Calm   1mph /  1.6km/h 75% 0in /  0.0mm 0 W/m2
20:01 67.5 °F /  19.7 °C 59.2 °F /  15.1 °C 29.9in /  1013.9hPa Calm   1mph /  1.6km/h 75% 0in /  0.0mm 0 W/m2
20:06 66.9 °F /  19.4 °C 59.2 °F /  15.1 °C 29.9in /  1013.9hPa Calm   1mph /  1.6km/h 76% 0in /  0.0mm 0 W/m2
20:12 66.6 °F /  19.2 °C 59.2 °F /  15.1 °C 30in /  1014.2hPa SE 0.9mph /  1.4km/h 1mph /  1.6km/h 77% 0in /  0.0mm 0 W/m2
20:17 66.4 °F /  19.1 °C 59.4 °F /  15.2 °C 30in /  1014.2hPa Calm   1mph /  1.6km/h 78% 0in /  0.0mm 0 W/m2
20:22 66 °F /  18.9 °C 59.4 °F /  15.2 °C 30in /  1014.2hPa Calm   1mph /  1.6km/h 79% 0in /  0.0mm 0 W/m2
20:27 65.7 °F /  18.7 °C 59 °F /  15 °C 29.9in /  1013.9hPa Calm     79% 0in /  0.0mm 0 W/m2
20:32 65.5 °F /  18.6 °C 59.2 °F /  15.1 °C 30in /  1014.2hPa Calm     80% 0in /  0.0mm 0 W/m2
20:37 65.1 °F /  18.4 °C 58.8 °F /  14.9 °C 30in /  1014.2hPa Calm   2mph /  3.2km/h 80% 0in /  0.0mm 0 W/m2
20:42 65.1 °F /  18.4 °C 59.2 °F /  15.1 °C 30in /  1014.2hPa Calm   1mph /  1.6km/h 81% 0in /  0.0mm 0 W/m2
20:47 65.1 °F /  18.4 °C 59.2 °F /  15.1 °C 30in /  1014.2hPa SE 0.9mph /  1.4km/h 1mph /  1.6km/h 81% 0in /  0.0mm 0 W/m2
20:52 65.1 °F /  18.4 °C 59.2 °F /  15.1 °C 30in /  1014.2hPa SE 0.9mph /  1.4km/h 1mph /  1.6km/h 81% 0in /  0.0mm 0 W/m2
20:57 65.1 °F /  18.4 °C 59.2 °F /  15.1 °C 30in /  1014.2hPa Calm   1mph /  1.6km/h 81% 0in /  0.0mm 0 W/m2
21:02 64.9 °F /  18.3 °C 59 °F /  15 °C 30in /  1014.6hPa Calm     81% 0in /  0.0mm 0 W/m2
21:07 64.8 °F /  18.2 °C 59.2 °F /  15.1 °C 30in /  1014.6hPa Calm   1mph /  1.6km/h 82% 0in /  0.0mm 0 W/m2
21:12 64.6 °F /  18.1 °C 59 °F /  15 °C 30in /  1014.6hPa SE 0.9mph /  1.4km/h 1mph /  1.6km/h 82% 0in /  0.0mm 0 W/m2
21:17 64.4 °F /  18 °C 58.8 °F /  14.9 °C 30in /  1014.6hPa Calm     82% 0in /  0.0mm 0 W/m2
21:22 64.2 °F /  17.9 °C 59 °F /  15 °C 30in /  1014.6hPa Calm     83% 0in /  0.0mm 0 W/m2
21:27 64 °F /  17.8 °C 58.8 °F /  14.9 °C 30in /  1014.6hPa Calm   1mph /  1.6km/h 83% 0in /  0.0mm 0 W/m2
21:32 63.9 °F /  17.7 °C 59 °F /  15 °C 30in /  1014.6hPa Calm   1mph /  1.6km/h 84% 0in /  0.0mm 0 W/m2
21:37 63.9 °F /  17.7 °C 59 °F /  15 °C 30in /  1014.6hPa Calm   1mph /  1.6km/h 84% 0in /  0.0mm 0 W/m2
21:42 63.7 °F /  17.6 °C 58.8 °F /  14.9 °C 30in /  1014.6hPa Calm     84% 0in /  0.0mm 0 W/m2
21:47 63.7 °F /  17.6 °C 58.8 °F /  14.9 °C 30in /  1014.6hPa Calm   2mph /  3.2km/h 84% 0in /  0.0mm 0 W/m2
21:52 63.3 °F /  17.4 °C 58.5 °F /  14.7 °C 30in /  1014.6hPa Calm   1mph /  1.6km/h 84% 0in /  0.0mm 0 W/m2
21:57 63.3 °F /  17.4 °C 58.8 °F /  14.9 °C 30in /  1014.9hPa Calm   1mph /  1.6km/h 85% 0in /  0.0mm 0 W/m2
22:02 63.3 °F /  17.4 °C 58.8 °F /  14.9 °C 30in /  1014.6hPa Calm     85% 0in /  0.0mm 0 W/m2
22:07 63.1 °F /  17.3 °C 58.6 °F /  14.8 °C 30in /  1014.9hPa SE 0.9mph /  1.4km/h 1mph /  1.6km/h 85% 0in /  0.0mm 0 W/m2
22:12 63 °F /  17.2 °C 58.5 °F /  14.7 °C 30in /  1014.6hPa Calm   1mph /  1.6km/h 85% 0in /  0.0mm 0 W/m2
22:22 62.8 °F /  17.1 °C 58.3 °F /  14.6 °C 30in /  1014.6hPa Calm   1mph /  1.6km/h 85% 0in /  0.0mm 0 W/m2
22:27 62.8 °F /  17.1 °C 58.5 °F /  14.7 °C 30in /  1014.6hPa Calm     86% 0in /  0.0mm 0 W/m2
22:32 62.4 °F /  16.9 °C 58.1 °F /  14.5 °C 30in /  1014.6hPa Calm     86% 0in /  0.0mm 0 W/m2
22:37 62.4 °F /  16.9 °C 58.1 °F /  14.5 °C 30in /  1014.6hPa Calm     86% 0in /  0.0mm 0 W/m2
22:42 62.2 °F /  16.8 °C 57.9 °F /  14.4 °C 30in /  1014.6hPa Calm     86% 0in /  0.0mm 0 W/m2
22:47 62.2 °F /  16.8 °C 58.3 °F /  14.6 °C 30in /  1014.6hPa Calm     87% 0in /  0.0mm 0 W/m2
22:52 62.1 °F /  16.7 °C 58.1 °F /  14.5 °C 30in /  1014.6hPa Calm     87% 0in /  0.0mm 0 W/m2
22:57 62.1 °F /  16.7 °C 58.1 °F /  14.5 °C 30in /  1014.6hPa Calm     87% 0in /  0.0mm 0 W/m2
23:02 61.9 °F /  16.6 °C 57.9 °F /  14.4 °C 30in /  1014.6hPa Calm     87% 0in /  0.0mm 0 W/m2
23:07 61.9 °F /  16.6 °C 58.3 °F /  14.6 °C 30in /  1014.6hPa Calm     88% 0in /  0.0mm 0 W/m2
23:12 61.7 °F /  16.5 °C 58.1 °F /  14.5 °C 30in /  1014.6hPa Calm     88% 0in /  0.0mm 0 W/m2
23:17 61.5 °F /  16.4 °C 57.9 °F /  14.4 °C 30in /  1014.6hPa Calm     88% 0in /  0.0mm 0 W/m2
23:22 61.5 °F /  16.4 °C 57.9 °F /  14.4 °C 30in /  1014.6hPa Calm     88% 0in /  0.0mm 0 W/m2
23:27 61.3 °F /  16.3 °C 57.7 °F /  14.3 °C 30in /  1014.6hPa Calm     88% 0in /  0.0mm 0 W/m2
23:32 61.3 °F /  16.3 °C 57.7 °F /  14.3 °C 30in /  1014.6hPa Calm     88% 0in /  0.0mm 0 W/m2
23:37 61.3 °F /  16.3 °C 58.1 °F /  14.5 °C 30in /  1014.6hPa Calm     89% 0in /  0.0mm 0 W/m2
23:42 61.3 °F /  16.3 °C 58.1 °F /  14.5 °C 30in /  1014.6hPa Calm     89% 0in /  0.0mm 0 W/m2
23:47 61.2 °F /  16.2 °C 57.9 °F /  14.4 °C 30in /  1014.6hPa Calm   1mph /  1.6km/h 89% 0in /  0.0mm 0 W/m2
23:52 61.2 °F /  16.2 °C 57.9 °F /  14.4 °C 30in /  1014.6hPa Calm     89% 0in /  0.0mm 0 W/m2
23:57 61.2 °F /  16.2 °C 57.9 °F /  14.4 °C 30in /  1014.6hPa Calm   1mph /  1.6km/h 89% 0in /  0.0mm 0 W/m2
Juneau County Weather
Compliments of Weather Underground - 4 mb